sensor_id;sensor_type;location;lat;lon;timestamp;pressure;altitude;pressure_sealevel;temperature;humidity
50093;BME280;35974;47.752;10.290;2023-08-12T00:01:50;94338.94;;;15.44;100.00
50093;BME280;35974;47.752;10.290;2023-08-12T00:04:16;94339.94;;;15.43;100.00
50093;BME280;35974;47.752;10.290;2023-08-12T00:06:43;94341.28;;;15.33;100.00
50093;BME280;35974;47.752;10.290;2023-08-12T00:09:09;94329.44;;;15.24;100.00
50093;BME280;35974;47.752;10.290;2023-08-12T00:11:51;94337.19;;;15.19;100.00
50093;BME280;35974;47.752;10.290;2023-08-12T00:14:17;94333.25;;;15.10;100.00
50093;BME280;35974;47.752;10.290;2023-08-12T00:16:43;94329.00;;;15.09;100.00
50093;BME280;35974;47.752;10.290;2023-08-12T00:19:10;94330.47;;;15.05;100.00
50093;BME280;35974;47.752;10.290;2023-08-12T00:21:36;94329.28;;;15.00;100.00
50093;BME280;35974;47.752;10.290;2023-08-12T00:24:04;94325.28;;;14.98;100.00
50093;BME280;35974;47.752;10.290;2023-08-12T00:26:30;94325.75;;;14.88;100.00
50093;BME280;35974;47.752;10.290;2023-08-12T00:28:56;94311.22;;;14.86;100.00
50093;BME280;35974;47.752;10.290;2023-08-12T00:31:23;94318.16;;;14.80;100.00
50093;BME280;35974;47.752;10.290;2023-08-12T00:33:50;94318.31;;;14.85;100.00
50093;BME280;35974;47.752;10.290;2023-08-12T00:36:17;94308.88;;;14.77;100.00
50093;BME280;35974;47.752;10.290;2023-08-12T00:38:43;94320.34;;;14.83;100.00
50093;BME280;35974;47.752;10.290;2023-08-12T00:41:10;94317.00;;;14.76;100.00
50093;BME280;35974;47.752;10.290;2023-08-12T00:43:36;94315.22;;;14.70;100.00
50093;BME280;35974;47.752;10.290;2023-08-12T00:46:03;94313.03;;;14.67;100.00
50093;BME280;35974;47.752;10.290;2023-08-12T00:48:30;94304.53;;;14.64;100.00
50093;BME280;35974;47.752;10.290;2023-08-12T00:50:56;94319.16;;;14.60;100.00
50093;BME280;35974;47.752;10.290;2023-08-12T00:53:23;94313.28;;;14.58;100.00
50093;BME280;35974;47.752;10.290;2023-08-12T00:55:49;94302.75;;;14.58;100.00
50093;BME280;35974;47.752;10.290;2023-08-12T00:58:16;94307.44;;;14.56;100.00
50093;BME280;35974;47.752;10.290;2023-08-12T01:00:42;94301.41;;;14.49;100.00
50093;BME280;35974;47.752;10.290;2023-08-12T01:03:09;94303.47;;;14.47;100.00
50093;BME280;35974;47.752;10.290;2023-08-12T01:05:36;94303.88;;;14.44;100.00
50093;BME280;35974;47.752;10.290;2023-08-12T01:08:06;94301.91;;;14.39;100.00
50093;BME280;35974;47.752;10.290;2023-08-12T01:10:33;94306.38;;;14.39;100.00
50093;BME280;35974;47.752;10.290;2023-08-12T01:15:33;94294.53;;;14.48;100.00
50093;BME280;35974;47.752;10.290;2023-08-12T01:18:00;94287.22;;;14.50;100.00
50093;BME280;35974;47.752;10.290;2023-08-12T01:20:26;94291.63;;;14.56;100.00
50093;BME280;35974;47.752;10.290;2023-08-12T01:22:57;94292.63;;;14.55;100.00
50093;BME280;35974;47.752;10.290;2023-08-12T01:25:25;94288.41;;;14.54;100.00
50093;BME280;35974;47.752;10.290;2023-08-12T01:27:51;94296.59;;;14.46;100.00
50093;BME280;35974;47.752;10.290;2023-08-12T01:30:25;94285.75;;;14.36;100.00
50093;BME280;35974;47.752;10.290;2023-08-12T01:35:23;94276.56;;;14.20;100.00
50093;BME280;35974;47.752;10.290;2023-08-12T01:37:51;94280.28;;;14.12;100.00
50093;BME280;35974;47.752;10.290;2023-08-12T01:40:19;94279.47;;;14.12;100.00
50093;BME280;35974;47.752;10.290;2023-08-12T01:42:45;94275.47;;;14.09;100.00
50093;BME280;35974;47.752;10.290;2023-08-12T01:45:12;94283.19;;;14.04;100.00
50093;BME280;35974;47.752;10.290;2023-08-12T01:47:39;94284.03;;;13.98;100.00
50093;BME280;35974;47.752;10.290;2023-08-12T01:50:08;94275.16;;;13.92;100.00
50093;BME280;35974;47.752;10.290;2023-08-12T01:52:36;94278.44;;;13.87;100.00
50093;BME280;35974;47.752;10.290;2023-08-12T01:57:32;94276.25;;;13.84;100.00
50093;BME280;35974;47.752;10.290;2023-08-12T02:00:00;94266.75;;;13.83;100.00
50093;BME280;35974;47.752;10.290;2023-08-12T02:02:26;94266.97;;;13.82;100.00
50093;BME280;35974;47.752;10.290;2023-08-12T02:04:53;94270.44;;;13.76;100.00
50093;BME280;35974;47.752;10.290;2023-08-12T02:07:19;94267.66;;;13.70;100.00
50093;BME280;35974;47.752;10.290;2023-08-12T02:09:46;94266.22;;;13.68;100.00
50093;BME280;35974;47.752;10.290;2023-08-12T02:12:12;94266.06;;;13.63;100.00
50093;BME280;35974;47.752;10.290;2023-08-12T02:14:38;94268.53;;;13.58;100.00
50093;BME280;35974;47.752;10.290;2023-08-12T02:17:05;94264.91;;;13.59;100.00
50093;BME280;35974;47.752;10.290;2023-08-12T02:19:32;94265.75;;;13.52;100.00
50093;BME280;35974;47.752;10.290;2023-08-12T02:22:00;94273.03;;;13.50;100.00
50093;BME280;35974;47.752;10.290;2023-08-12T02:24:27;94265.00;;;13.45;100.00
50093;BME280;35974;47.752;10.290;2023-08-12T02:26:54;94263.78;;;13.41;100.00
50093;BME280;35974;47.752;10.290;2023-08-12T02:29:20;94268.66;;;13.38;100.00
50093;BME280;35974;47.752;10.290;2023-08-12T02:31:49;94264.63;;;13.35;100.00
50093;BME280;35974;47.752;10.290;2023-08-12T02:34:15;94271.50;;;13.36;100.00
50093;BME280;35974;47.752;10.290;2023-08-12T02:36:42;94255.75;;;13.36;100.00
50093;BME280;35974;47.752;10.290;2023-08-12T02:39:08;94261.00;;;13.36;100.00
50093;BME280;35974;47.752;10.290;2023-08-12T02:41:35;94260.56;;;13.39;100.00
50093;BME280;35974;47.752;10.290;2023-08-12T02:44:01;94263.41;;;13.38;100.00
50093;BME280;35974;47.752;10.290;2023-08-12T02:46:28;94259.75;;;13.32;100.00
50093;BME280;35974;47.752;10.290;2023-08-12T02:48:55;94254.91;;;13.29;100.00
50093;BME280;35974;47.752;10.290;2023-08-12T02:51:21;94249.72;;;13.22;100.00
50093;BME280;35974;47.752;10.290;2023-08-12T02:53:47;94259.41;;;13.22;100.00
50093;BME280;35974;47.752;10.290;2023-08-12T02:58:44;94253.81;;;13.11;100.00
50093;BME280;35974;47.752;10.290;2023-08-12T03:01:10;94250.56;;;13.09;100.00
50093;BME280;35974;47.752;10.290;2023-08-12T03:03:37;94245.75;;;13.06;100.00
50093;BME280;35974;47.752;10.290;2023-08-12T03:06:03;94249.41;;;13.05;100.00
50093;BME280;35974;47.752;10.290;2023-08-12T03:08:30;94248.19;;;13.01;100.00
50093;BME280;35974;47.752;10.290;2023-08-12T03:11:00;94246.59;;;13.00;100.00
50093;BME280;35974;47.752;10.290;2023-08-12T03:13:27;94241.34;;;13.00;100.00
50093;BME280;35974;47.752;10.290;2023-08-12T03:15:54;94246.59;;;13.00;100.00
50093;BME280;35974;47.752;10.290;2023-08-12T03:18:20;94242.34;;;12.99;100.00
50093;BME280;35974;47.752;10.290;2023-08-12T03:20:47;94240.56;;;12.93;100.00
50093;BME280;35974;47.752;10.290;2023-08-12T03:23:14;94247.81;;;12.97;100.00
50093;BME280;35974;47.752;10.290;2023-08-12T03:25:40;94241.69;;;13.10;100.00
50093;BME280;35974;47.752;10.290;2023-08-12T03:28:07;94236.78;;;13.21;100.00
50093;BME280;35974;47.752;10.290;2023-08-12T03:30:34;94238.91;;;13.05;100.00
50093;BME280;35974;47.752;10.290;2023-08-12T03:33:00;94241.34;;;13.00;100.00
50093;BME280;35974;47.752;10.290;2023-08-12T03:35:26;94236.88;;;13.00;100.00
50093;BME280;35974;47.752;10.290;2023-08-12T03:37:53;94237.69;;;13.01;100.00
50093;BME280;35974;47.752;10.290;2023-08-12T03:40:20;94235.69;;;13.03;100.00
50093;BME280;35974;47.752;10.290;2023-08-12T03:42:46;94234.22;;;13.07;100.00
50093;BME280;35974;47.752;10.290;2023-08-12T03:45:13;94231.25;;;12.97;100.00
50093;BME280;35974;47.752;10.290;2023-08-12T03:47:40;94234.72;;;12.91;100.00
50093;BME280;35974;47.752;10.290;2023-08-12T03:50:07;94234.53;;;12.86;100.00
50093;BME280;35974;47.752;10.290;2023-08-12T03:52:33;94234.53;;;12.86;100.00
50093;BME280;35974;47.752;10.290;2023-08-12T03:54:59;94243.00;;;12.88;100.00
50093;BME280;35974;47.752;10.290;2023-08-12T03:57:26;94235.72;;;12.90;100.00
50093;BME280;35974;47.752;10.290;2023-08-12T03:59:52;94237.34;;;12.91;100.00
50093;BME280;35974;47.752;10.290;2023-08-12T04:02:19;94235.31;;;12.93;100.00
50093;BME280;35974;47.752;10.290;2023-08-12T04:04:45;94232.84;;;12.98;100.00
50093;BME280;35974;47.752;10.290;2023-08-12T04:07:11;94225.63;;;12.93;100.00
50093;BME280;35974;47.752;10.290;2023-08-12T04:09:38;94237.28;;;13.04;100.00
50093;BME280;35974;47.752;10.290;2023-08-12T04:12:05;94232.81;;;13.11;100.00
50093;BME280;35974;47.752;10.290;2023-08-12T04:14:31;94229.16;;;13.12;100.00
50093;BME280;35974;47.752;10.290;2023-08-12T04:16:58;94242.44;;;13.17;100.00
50093;BME280;35974;47.752;10.290;2023-08-12T04:19:24;94238.22;;;13.16;100.00
50093;BME280;35974;47.752;10.290;2023-08-12T04:21:50;94245.06;;;13.17;100.00
50093;BME280;35974;47.752;10.290;2023-08-12T04:24:17;94243.66;;;13.22;100.00
50093;BME280;35974;47.752;10.290;2023-08-12T04:26:43;94240.44;;;13.19;100.00
50093;BME280;35974;47.752;10.290;2023-08-12T04:29:10;94240.44;;;13.19;100.00
50093;BME280;35974;47.752;10.290;2023-08-12T04:31:36;94239.97;;;13.29;100.00
50093;BME280;35974;47.752;10.290;2023-08-12T04:34:03;94239.81;;;13.24;100.00
50093;BME280;35974;47.752;10.290;2023-08-12T04:36:30;94246.44;;;13.27;100.00
50093;BME280;35974;47.752;10.290;2023-08-12T04:38:56;94240.97;;;13.35;100.00
50093;BME280;35974;47.752;10.290;2023-08-12T04:41:22;94235.88;;;13.40;100.00
50093;BME280;35974;47.752;10.290;2023-08-12T04:43:50;94236.91;;;13.39;100.00
50093;BME280;35974;47.752;10.290;2023-08-12T04:46:17;94237.25;;;13.49;100.00
50093;BME280;35974;47.752;10.290;2023-08-12T04:48:44;94237.84;;;13.51;100.00
50093;BME280;35974;47.752;10.290;2023-08-12T04:51:10;94234.56;;;13.56;100.00
50093;BME280;35974;47.752;10.290;2023-08-12T04:53:36;94233.47;;;13.70;100.00
50093;BME280;35974;47.752;10.290;2023-08-12T04:56:03;94232.41;;;13.78;100.00
50093;BME280;35974;47.752;10.290;2023-08-12T04:58:29;94232.72;;;13.88;100.00
50093;BME280;35974;47.752;10.290;2023-08-12T05:00:56;94233.03;;;13.99;100.00
50093;BME280;35974;47.752;10.290;2023-08-12T05:03:23;94237.38;;;14.12;100.00
50093;BME280;35974;47.752;10.290;2023-08-12T05:05:50;94230.00;;;14.20;100.00
50093;BME280;35974;47.752;10.290;2023-08-12T05:08:17;94226.81;;;14.37;100.00
50093;BME280;35974;47.752;10.290;2023-08-12T05:10:44;94230.91;;;14.51;100.00
50093;BME280;35974;47.752;10.290;2023-08-12T05:13:13;94232.41;;;14.66;100.00
50093;BME280;35974;47.752;10.290;2023-08-12T05:15:39;94225.38;;;14.78;100.00
50093;BME280;35974;47.752;10.290;2023-08-12T05:18:06;94233.31;;;14.90;100.00
50093;BME280;35974;47.752;10.290;2023-08-12T05:20:32;94236.47;;;14.98;100.00
50093;BME280;35974;47.752;10.290;2023-08-12T05:22:59;94233.09;;;15.10;100.00
50093;BME280;35974;47.752;10.290;2023-08-12T05:25:25;94230.50;;;15.22;100.00
50093;BME280;35974;47.752;10.290;2023-08-12T05:27:52;94236.47;;;15.29;100.00
50093;BME280;35974;47.752;10.290;2023-08-12T05:30:18;94222.63;;;15.33;100.00
50093;BME280;35974;47.752;10.290;2023-08-12T05:32:52;94227.00;;;15.40;100.00
50093;BME280;35974;47.752;10.290;2023-08-12T05:35:19;94229.31;;;15.48;100.00
50093;BME280;35974;47.752;10.290;2023-08-12T05:37:45;94226.97;;;15.58;100.00
50093;BME280;35974;47.752;10.290;2023-08-12T05:40:12;94221.94;;;15.68;100.00
50093;BME280;35974;47.752;10.290;2023-08-12T05:42:38;94231.72;;;15.80;100.00
50093;BME280;35974;47.752;10.290;2023-08-12T05:45:05;94226.34;;;15.86;100.00
50093;BME280;35974;47.752;10.290;2023-08-12T05:47:34;94231.63;;;15.98;100.00
50093;BME280;35974;47.752;10.290;2023-08-12T05:50:00;94222.34;;;16.07;100.00
50093;BME280;35974;47.752;10.290;2023-08-12T05:52:26;94225.91;;;16.25;100.00
50093;BME280;35974;47.752;10.290;2023-08-12T05:54:53;94228.91;;;16.28;100.00
50093;BME280;35974;47.752;10.290;2023-08-12T05:57:19;94229.34;;;16.37;100.00
50093;BME280;35974;47.752;10.290;2023-08-12T05:59:46;94231.06;;;16.43;100.00
50093;BME280;35974;47.752;10.290;2023-08-12T06:02:12;94226.44;;;16.51;100.00
50093;BME280;35974;47.752;10.290;2023-08-12T06:04:39;94224.03;;;16.61;100.00
50093;BME280;35974;47.752;10.290;2023-08-12T06:07:05;94218.41;;;16.69;100.00
50093;BME280;35974;47.752;10.290;2023-08-12T06:09:32;94218.69;;;16.84;100.00
50093;BME280;35974;47.752;10.290;2023-08-12T06:11:58;94222.06;;;16.92;100.00
50093;BME280;35974;47.752;10.290;2023-08-12T06:14:24;94220.91;;;16.88;100.00
50093;BME280;35974;47.752;10.290;2023-08-12T06:16:56;94217.88;;;16.96;100.00
50093;BME280;35974;47.752;10.290;2023-08-12T06:19:24;94213.28;;;17.03;100.00
50093;BME280;35974;47.752;10.290;2023-08-12T06:21:51;94215.56;;;17.11;100.00
50093;BME280;35974;47.752;10.290;2023-08-12T06:24:18;94217.66;;;17.26;100.00
50093;BME280;35974;47.752;10.290;2023-08-12T06:26:44;94216.75;;;17.49;100.00
50093;BME280;35974;47.752;10.290;2023-08-12T06:29:10;94224.44;;;17.51;100.00
50093;BME280;35974;47.752;10.290;2023-08-12T06:31:37;94216.94;;;17.60;100.00
50093;BME280;35974;47.752;10.290;2023-08-12T06:34:03;94213.91;;;17.68;100.00
50093;BME280;35974;47.752;10.290;2023-08-12T06:36:30;94211.97;;;17.80;100.00
50093;BME280;35974;47.752;10.290;2023-08-12T06:38:56;94214.09;;;17.95;100.00
50093;BME280;35974;47.752;10.290;2023-08-12T06:41:23;94204.53;;;18.11;100.00
50093;BME280;35974;47.752;10.290;2023-08-12T06:43:49;94199.47;;;18.26;100.00
50093;BME280;35974;47.752;10.290;2023-08-12T06:46:17;94196.97;;;18.37;100.00
50093;BME280;35974;47.752;10.290;2023-08-12T06:48:43;94197.19;;;18.52;100.00
50093;BME280;35974;47.752;10.290;2023-08-12T06:51:10;94196.19;;;18.58;100.00
50093;BME280;35974;47.752;10.290;2023-08-12T06:53:37;94201.13;;;18.72;100.00
50093;BME280;35974;47.752;10.290;2023-08-12T06:56:04;94198.38;;;18.83;100.00
50093;BME280;35974;47.752;10.290;2023-08-12T06:58:31;94194.63;;;19.01;100.00
50093;BME280;35974;47.752;10.290;2023-08-12T07:00:57;94202.63;;;19.07;100.00
50093;BME280;35974;47.752;10.290;2023-08-12T07:03:40;94204.44;;;19.28;100.00
50093;BME280;35974;47.752;10.290;2023-08-12T07:06:07;94203.44;;;19.34;100.00
50093;BME280;35974;47.752;10.290;2023-08-12T07:08:39;94197.59;;;19.32;100.00
50093;BME280;35974;47.752;10.290;2023-08-12T07:11:06;94204.66;;;19.49;100.00
50093;BME280;35974;47.752;10.290;2023-08-12T07:16:19;94208.53;;;19.68;100.00
50093;BME280;35974;47.752;10.290;2023-08-12T07:18:46;94208.53;;;19.68;100.00
50093;BME280;35974;47.752;10.290;2023-08-12T07:21:13;94205.53;;;19.87;100.00
50093;BME280;35974;47.752;10.290;2023-08-12T07:23:48;94213.13;;;20.05;100.00
50093;BME280;35974;47.752;10.290;2023-08-12T07:26:29;94202.63;;;20.26;100.00
50093;BME280;35974;47.752;10.290;2023-08-12T07:29:04;94200.59;;;20.38;100.00
50093;BME280;35974;47.752;10.290;2023-08-12T07:31:31;94200.13;;;20.52;100.00
50093;BME280;35974;47.752;10.290;2023-08-12T07:36:33;94204.06;;;20.92;100.00
50093;BME280;35974;47.752;10.290;2023-08-12T07:39:14;94199.91;;;21.16;100.00
50093;BME280;35974;47.752;10.290;2023-08-12T07:41:40;94206.84;;;21.23;100.00
50093;BME280;35974;47.752;10.290;2023-08-12T07:44:12;94210.09;;;21.40;100.00
50093;BME280;35974;47.752;10.290;2023-08-12T07:46:40;94206.94;;;21.48;100.00
50093;BME280;35974;47.752;10.290;2023-08-12T07:51:58;94205.91;;;21.85;100.00
50093;BME280;35974;47.752;10.290;2023-08-12T07:54:29;94210.16;;;21.81;100.00
50093;BME280;35974;47.752;10.290;2023-08-12T07:59:34;94203.50;;;22.15;100.00
50093;BME280;35974;47.752;10.290;2023-08-12T08:02:08;94213.38;;;22.24;100.00
50093;BME280;35974;47.752;10.290;2023-08-12T08:04:34;94206.97;;;22.41;100.00
50093;BME280;35974;47.752;10.290;2023-08-12T08:07:04;94214.91;;;22.56;100.00
50093;BME280;35974;47.752;10.290;2023-08-12T08:09:33;94212.28;;;22.51;100.00
50093;BME280;35974;47.752;10.290;2023-08-12T08:12:00;94208.50;;;22.62;100.00
50093;BME280;35974;47.752;10.290;2023-08-12T08:14:34;94201.03;;;22.64;100.00
50093;BME280;35974;47.752;10.290;2023-08-12T08:17:00;94209.06;;;22.59;100.00
50093;BME280;35974;47.752;10.290;2023-08-12T08:19:26;94216.53;;;22.57;100.00
50093;BME280;35974;47.752;10.290;2023-08-12T08:21:55;94215.41;;;22.74;100.00
50093;BME280;35974;47.752;10.290;2023-08-12T08:24:21;94213.28;;;22.76;100.00
50093;BME280;35974;47.752;10.290;2023-08-12T08:26:48;94214.59;;;22.83;100.00
50093;BME280;35974;47.752;10.290;2023-08-12T08:29:14;94205.69;;;23.09;100.00
50093;BME280;35974;47.752;10.290;2023-08-12T08:31:40;94205.69;;;23.19;100.00
50093;BME280;35974;47.752;10.290;2023-08-12T08:34:07;94207.81;;;23.17;100.00
50093;BME280;35974;47.752;10.290;2023-08-12T08:36:33;94201.44;;;23.08;100.00
50093;BME280;35974;47.752;10.290;2023-08-12T08:39:00;94208.25;;;23.34;100.00
50093;BME280;35974;47.752;10.290;2023-08-12T08:41:26;94207.22;;;23.30;100.00
50093;BME280;35974;47.752;10.290;2023-08-12T08:44:09;94204.50;;;23.35;100.00
50093;BME280;35974;47.752;10.290;2023-08-12T08:46:35;94206.13;;;23.36;100.00
50093;BME280;35974;47.752;10.290;2023-08-12T08:49:02;94206.84;;;23.47;100.00
50093;BME280;35974;47.752;10.290;2023-08-12T08:51:30;94208.66;;;23.57;100.00
50093;BME280;35974;47.752;10.290;2023-08-12T08:53:58;94203.22;;;23.72;100.00
50093;BME280;35974;47.752;10.290;2023-08-12T08:56:29;94213.91;;;23.72;100.00
50093;BME280;35974;47.752;10.290;2023-08-12T08:58:58;94212.31;;;23.71;100.00
50093;BME280;35974;47.752;10.290;2023-08-12T09:01:25;94213.31;;;23.86;100.00
50093;BME280;35974;47.752;10.290;2023-08-12T09:03:53;94215.63;;;23.98;100.00
50093;BME280;35974;47.752;10.290;2023-08-12T09:06:20;94212.66;;;23.99;100.00
50093;BME280;35974;47.752;10.290;2023-08-12T09:08:47;94210.22;;;24.08;100.00
50093;BME280;35974;47.752;10.290;2023-08-12T09:11:14;94198.25;;;24.29;100.00
50093;BME280;35974;47.752;10.290;2023-08-12T09:13:43;94206.31;;;24.54;100.00
50093;BME280;35974;47.752;10.290;2023-08-12T09:16:09;94211.56;;;24.64;100.00
50093;BME280;35974;47.752;10.290;2023-08-12T09:18:37;94207.72;;;24.75;100.00
50093;BME280;35974;47.752;10.290;2023-08-12T09:21:04;94214.88;;;25.04;100.00
50093;BME280;35974;47.752;10.290;2023-08-12T09:23:34;94215.31;;;25.11;100.00
50093;BME280;35974;47.752;10.290;2023-08-12T09:26:01;94219.47;;;25.22;100.00
50093;BME280;35974;47.752;10.290;2023-08-12T09:28:27;94214.38;;;25.45;100.00
50093;BME280;35974;47.752;10.290;2023-08-12T09:30:56;94216.88;;;25.61;100.00
50093;BME280;35974;47.752;10.290;2023-08-12T09:33:23;94224.41;;;25.97;100.00
50093;BME280;35974;47.752;10.290;2023-08-12T09:35:50;94208.31;;;25.97;100.00
50093;BME280;35974;47.752;10.290;2023-08-12T09:38:16;94210.72;;;25.98;100.00
50093;BME280;35974;47.752;10.290;2023-08-12T09:40:43;94221.91;;;26.19;100.00
50093;BME280;35974;47.752;10.290;2023-08-12T09:43:10;94207.56;;;26.43;100.00
50093;BME280;35974;47.752;10.290;2023-08-12T09:45:39;94200.56;;;26.75;100.00
50093;BME280;35974;47.752;10.290;2023-08-12T09:48:06;94193.31;;;26.89;100.00
50093;BME280;35974;47.752;10.290;2023-08-12T09:50:35;94198.28;;;27.10;100.00
50093;BME280;35974;47.752;10.290;2023-08-12T09:53:02;94195.19;;;27.02;100.00
50093;BME280;35974;47.752;10.290;2023-08-12T09:55:29;94189.81;;;27.02;100.00
50093;BME280;35974;47.752;10.290;2023-08-12T09:57:57;94199.97;;;27.33;100.00
50093;BME280;35974;47.752;10.290;2023-08-12T10:00:25;94199.31;;;27.64;100.00
50093;BME280;35974;47.752;10.290;2023-08-12T10:02:52;94191.47;;;27.76;100.00
50093;BME280;35974;47.752;10.290;2023-08-12T10:05:23;94203.53;;;27.43;100.00
50093;BME280;35974;47.752;10.290;2023-08-12T10:07:52;94200.75;;;27.48;100.00
50093;BME280;35974;47.752;10.290;2023-08-12T10:10:19;94208.81;;;27.20;100.00
50093;BME280;35974;47.752;10.290;2023-08-12T10:12:46;94199.97;;;27.06;100.00
50093;BME280;35974;47.752;10.290;2023-08-12T10:15:14;94202.94;;;26.90;100.00
50093;BME280;35974;47.752;10.290;2023-08-12T10:17:44;94205.34;;;27.33;100.00
50093;BME280;35974;47.752;10.290;2023-08-12T10:20:13;94200.94;;;27.10;100.00
50093;BME280;35974;47.752;10.290;2023-08-12T10:22:40;94199.75;;;27.16;100.00
50093;BME280;35974;47.752;10.290;2023-08-12T10:25:09;94199.16;;;27.19;100.00
50093;BME280;35974;47.752;10.290;2023-08-12T10:27:41;94196.97;;;27.21;100.00
50093;BME280;35974;47.752;10.290;2023-08-12T10:30:10;94194.00;;;27.36;100.00
50093;BME280;35974;47.752;10.290;2023-08-12T10:32:41;94202.34;;;27.21;100.00
50093;BME280;35974;47.752;10.290;2023-08-12T10:35:15;94194.16;;;27.26;100.00
50093;BME280;35974;47.752;10.290;2023-08-12T10:37:42;94197.69;;;27.63;100.00
50093;BME280;35974;47.752;10.290;2023-08-12T10:40:19;94200.75;;;27.48;100.00
50093;BME280;35974;47.752;10.290;2023-08-12T10:42:48;94202.47;;;27.66;100.00
50093;BME280;35974;47.752;10.290;2023-08-12T10:45:15;94184.81;;;27.37;100.00
50093;BME280;35974;47.752;10.290;2023-08-12T10:47:49;94204.19;;;27.62;100.00
50093;BME280;35974;47.752;10.290;2023-08-12T10:50:19;94194.16;;;27.26;100.00
50093;BME280;35974;47.752;10.290;2023-08-12T10:52:55;94197.59;;;27.32;100.00
50093;BME280;35974;47.752;10.290;2023-08-12T10:55:27;94200.16;;;27.23;100.00
50093;BME280;35974;47.752;10.290;2023-08-12T10:57:57;94200.94;;;27.10;100.00
50093;BME280;35974;47.752;10.290;2023-08-12T11:00:40;94200.16;;;27.23;100.00
50093;BME280;35974;47.752;10.290;2023-08-12T11:03:19;94202.06;;;27.36;100.00
50093;BME280;35974;47.752;10.290;2023-08-12T11:05:47;94202.16;;;26.76;100.00
50093;BME280;35974;47.752;10.290;2023-08-12T11:11:18;94200.56;;;27.30;100.00
50093;BME280;35974;47.752;10.290;2023-08-12T11:13:57;94198.97;;;27.15;100.00
50093;BME280;35974;47.752;10.290;2023-08-12T11:16:42;94201.75;;;27.24;100.00
50093;BME280;35974;47.752;10.290;2023-08-12T11:19:25;94210.72;;;27.33;100.00
50093;BME280;35974;47.752;10.290;2023-08-12T11:21:59;94202.34;;;27.71;100.00
50093;BME280;35974;47.752;10.290;2023-08-12T11:24:40;94203.09;;;27.86;100.00
50093;BME280;35974;47.752;10.290;2023-08-12T11:27:13;94209.56;;;27.85;100.00
50093;BME280;35974;47.752;10.290;2023-08-12T11:29:53;94205.09;;;28.17;100.00
50093;BME280;35974;47.752;10.290;2023-08-12T11:32:20;94204.31;;;27.80;100.00
50093;BME280;35974;47.752;10.290;2023-08-12T11:34:47;94206.50;;;27.55;100.00
50093;BME280;35974;47.752;10.290;2023-08-12T11:37:15;94206.50;;;27.55;100.00
50093;BME280;35974;47.752;10.290;2023-08-12T11:39:48;94208.59;;;27.81;100.00
50093;BME280;35974;47.752;10.290;2023-08-12T11:42:17;94202.97;;;27.91;100.00
50093;BME280;35974;47.752;10.290;2023-08-12T11:44:43;94203.94;;;28.09;100.00
50093;BME280;35974;47.752;10.290;2023-08-12T11:47:10;94208.97;;;27.88;100.00
50093;BME280;35974;47.752;10.290;2023-08-12T11:49:40;94202.78;;;28.01;100.00
50093;BME280;35974;47.752;10.290;2023-08-12T11:52:08;94208.88;;;28.38;100.00
50093;BME280;35974;47.752;10.290;2023-08-12T11:54:37;94213.66;;;28.19;100.00
50093;BME280;35974;47.752;10.290;2023-08-12T11:57:04;94210.13;;;28.09;100.00
50093;BME280;35974;47.752;10.290;2023-08-12T11:59:31;94204.44;;;27.74;100.00
50093;BME280;35974;47.752;10.290;2023-08-12T12:01:57;94200.88;;;27.65;100.00
50093;BME280;35974;47.752;10.290;2023-08-12T12:04:24;94211.31;;;27.30;100.00
50093;BME280;35974;47.752;10.290;2023-08-12T12:06:50;94217.41;;;27.58;100.00
50093;BME280;35974;47.752;10.290;2023-08-12T12:09:16;94222.84;;;27.45;100.00
50093;BME280;35974;47.752;10.290;2023-08-12T12:11:51;94223.84;;;26.93;100.00
50093;BME280;35974;47.752;10.290;2023-08-12T12:14:20;94220.28;;;27.12;100.00
50093;BME280;35974;47.752;10.290;2023-08-12T12:16:48;94224.41;;;27.18;100.00
50093;BME280;35974;47.752;10.290;2023-08-12T12:21:42;94229.59;;;26.40;100.00
50093;BME280;35974;47.752;10.290;2023-08-12T12:24:09;94222.72;;;26.34;100.00
50093;BME280;35974;47.752;10.290;2023-08-12T12:26:35;94235.50;;;26.42;100.00
50093;BME280;35974;47.752;10.290;2023-08-12T12:29:03;94232.88;;;26.04;100.00
50093;BME280;35974;47.752;10.290;2023-08-12T12:31:31;94234.22;;;26.20;100.00
50093;BME280;35974;47.752;10.290;2023-08-12T12:33:57;94231.63;;;26.15;100.00
50093;BME280;35974;47.752;10.290;2023-08-12T12:36:28;94230.75;;;26.01;100.00
50093;BME280;35974;47.752;10.290;2023-08-12T12:39:06;94226.63;;;25.89;100.00
50093;BME280;35974;47.752;10.290;2023-08-12T12:41:35;94232.50;;;25.53;100.00
50093;BME280;35974;47.752;10.290;2023-08-12T12:44:03;94231.91;;;25.56;100.00
50093;BME280;35974;47.752;10.290;2023-08-12T12:46:35;94237.69;;;25.64;100.00
50093;BME280;35974;47.752;10.290;2023-08-12T12:49:03;94224.75;;;25.52;100.00
50093;BME280;35974;47.752;10.290;2023-08-12T12:51:30;94227.84;;;25.78;100.00
50093;BME280;35974;47.752;10.290;2023-08-12T12:53:57;94222.16;;;25.66;100.00
50093;BME280;35974;47.752;10.290;2023-08-12T12:56:23;94218.06;;;25.87;100.00
50093;BME280;35974;47.752;10.290;2023-08-12T12:58:50;94210.75;;;26.12;100.00
50093;BME280;35974;47.752;10.290;2023-08-12T13:01:16;94203.34;;;26.37;100.00
50093;BME280;35974;47.752;10.290;2023-08-12T13:03:43;94203.44;;;26.31;100.00
50093;BME280;35974;47.752;10.290;2023-08-12T13:06:10;94213.91;;;26.14;100.00
50093;BME280;35974;47.752;10.290;2023-08-12T13:08:42;94213.59;;;26.02;100.00
50093;BME280;35974;47.752;10.290;2023-08-12T13:11:09;94213.22;;;25.89;100.00